Terminal Aerodrome Forecast
Issued by NWS

Home | Current Version | Previous Version | Text Only | Print | Product List | Glossary On
Versions: 1 2 3 4 5 6 7 8 9 10 11 12 13
349
FTPA31 PHFO 110523
TAFHNY
TAF
PHNY 110523Z 1106/1206 05005KT P6SM SCT023
     FM112000 27008KT P6SM SCT018 BKN035
     FM120300 05012KT P6SM SCT020 BKN040
     FM120500 05007KT P6SM FEW022 SCT040
      AMD NOT SKED=

USA.gov is the U.S. government's official web portal to all federal, state and local government web resources and services.